sensor_id;sensor_type;location;lat;lon;timestamp;pressure;altitude;pressure_sealevel;temperature;humidity
49072;BME280;52656;52.610;10.236;2023-03-23T00:00:19;99947.06;;;12.26;60.30
49072;BME280;52656;52.610;10.236;2023-03-23T00:02:46;99943.53;;;12.26;60.26
49072;BME280;52656;52.610;10.236;2023-03-23T00:05:11;99939.34;;;12.21;61.74
49072;BME280;52656;52.610;10.236;2023-03-23T00:07:36;99954.63;;;12.18;61.00
49072;BME280;52656;52.610;10.236;2023-03-23T00:10:02;99948.47;;;12.17;61.93
49072;BME280;52656;52.610;10.236;2023-03-23T00:12:29;99943.94;;;12.34;60.80
49072;BME280;52656;52.610;10.236;2023-03-23T00:15:03;99942.63;;;12.27;61.16
49072;BME280;52656;52.610;10.236;2023-03-23T00:17:30;99943.25;;;12.30;61.40
49072;BME280;52656;52.610;10.236;2023-03-23T00:19:58;99939.69;;;12.31;61.29
49072;BME280;52656;52.610;10.236;2023-03-23T00:22:23;99941.09;;;12.23;62.88
49072;BME280;52656;52.610;10.236;2023-03-23T00:24:50;99941.47;;;12.31;61.60
49072;BME280;52656;52.610;10.236;2023-03-23T00:27:17;99936.50;;;12.10;64.30
49072;BME280;52656;52.610;10.236;2023-03-23T00:29:42;99940.91;;;11.95;66.52
49072;BME280;52656;52.610;10.236;2023-03-23T00:32:10;99941.84;;;11.94;67.21
49072;BME280;52656;52.610;10.236;2023-03-23T00:34:39;99947.81;;;11.98;67.81
49072;BME280;52656;52.610;10.236;2023-03-23T00:37:07;99939.19;;;11.94;68.64
49072;BME280;52656;52.610;10.236;2023-03-23T00:39:33;99941.34;;;11.88;70.02
49072;BME280;52656;52.610;10.236;2023-03-23T00:42:02;99934.94;;;11.76;71.06
49072;BME280;52656;52.610;10.236;2023-03-23T00:44:27;99940.59;;;11.70;73.89
49072;BME280;52656;52.610;10.236;2023-03-23T00:46:54;99942.50;;;11.68;71.44
49072;BME280;52656;52.610;10.236;2023-03-23T00:49:22;99941.13;;;11.61;73.01
49072;BME280;52656;52.610;10.236;2023-03-23T00:51:56;99934.22;;;11.42;74.64
49072;BME280;52656;52.610;10.236;2023-03-23T00:54:22;99921.53;;;11.48;74.21
49072;BME280;52656;52.610;10.236;2023-03-23T00:56:49;99928.03;;;11.26;76.78
49072;BME280;52656;52.610;10.236;2023-03-23T00:59:15;99929.75;;;11.43;74.65
49072;BME280;52656;52.610;10.236;2023-03-23T01:01:40;99924.72;;;11.23;77.46
49072;BME280;52656;52.610;10.236;2023-03-23T01:04:06;99927.56;;;11.35;75.84
49072;BME280;52656;52.610;10.236;2023-03-23T01:06:32;99923.25;;;11.33;78.13
49072;BME280;52656;52.610;10.236;2023-03-23T01:09:00;99916.59;;;11.26;76.85
49072;BME280;52656;52.610;10.236;2023-03-23T01:11:28;99911.66;;;11.35;75.75
49072;BME280;52656;52.610;10.236;2023-03-23T01:13:53;99925.25;;;11.12;80.13
49072;BME280;52656;52.610;10.236;2023-03-23T01:16:18;99924.72;;;11.23;77.46
49072;BME280;52656;52.610;10.236;2023-03-23T01:18:44;99915.81;;;11.24;78.15
49072;BME280;52656;52.610;10.236;2023-03-23T01:34:18;99899.81;;;11.09;80.89
49072;BME280;52656;52.610;10.236;2023-03-23T01:36:43;99896.97;;;10.97;83.77
49072;BME280;52656;52.610;10.236;2023-03-23T01:39:09;99892.97;;;11.05;81.45
49072;BME280;52656;52.610;10.236;2023-03-23T01:41:34;99896.81;;;11.00;83.40
49072;BME280;52656;52.610;10.236;2023-03-23T01:44:06;99897.97;;;10.94;82.71
49072;BME280;52656;52.610;10.236;2023-03-23T01:46:35;99892.53;;;10.97;82.60
49072;BME280;52656;52.610;10.236;2023-03-23T01:49:22;99889.25;;;10.76;86.08
49072;BME280;52656;52.610;10.236;2023-03-23T01:51:54;99890.63;;;10.83;84.09
49072;BME280;52656;52.610;10.236;2023-03-23T01:54:22;99890.53;;;10.85;84.19
49072;BME280;52656;52.610;10.236;2023-03-23T01:57:01;99892.34;;;10.84;84.57
49072;BME280;52656;52.610;10.236;2023-03-23T01:59:27;99886.53;;;10.78;85.96
49072;BME280;52656;52.610;10.236;2023-03-23T02:01:54;99883.03;;;10.93;84.43
49072;BME280;52656;52.610;10.236;2023-03-23T02:04:22;99880.69;;;10.71;86.81
49072;BME280;52656;52.610;10.236;2023-03-23T02:06:49;99875.19;;;10.91;85.00
49072;BME280;52656;52.610;10.236;2023-03-23T02:09:15;99866.19;;;10.78;85.75
49072;BME280;52656;52.610;10.236;2023-03-23T02:11:42;99862.69;;;10.93;85.11
49072;BME280;52656;52.610;10.236;2023-03-23T02:14:08;99860.63;;;10.83;87.13
49072;BME280;52656;52.610;10.236;2023-03-23T02:16:59;99877.47;;;10.82;88.15
49072;BME280;52656;52.610;10.236;2023-03-23T02:22:51;99864.13;;;10.83;87.74
49072;BME280;52656;52.610;10.236;2023-03-23T02:25:33;99864.41;;;10.94;86.52
49072;BME280;52656;52.610;10.236;2023-03-23T02:36:01;99851.31;;;10.91;86.65
49072;BME280;52656;52.610;10.236;2023-03-23T02:41:03;99840.66;;;11.09;86.87
49072;BME280;52656;52.610;10.236;2023-03-23T02:43:33;99844.13;;;10.93;86.99
49072;BME280;52656;52.610;10.236;2023-03-23T02:46:00;99850.56;;;11.05;86.17
49072;BME280;52656;52.610;10.236;2023-03-23T02:48:28;99833.13;;;11.01;86.33
49072;BME280;52656;52.610;10.236;2023-03-23T02:50:56;99844.31;;;11.06;85.75
49072;BME280;52656;52.610;10.236;2023-03-23T02:53:24;99840.66;;;11.09;85.75
49072;BME280;52656;52.610;10.236;2023-03-23T02:55:52;99821.31;;;11.07;85.72
49072;BME280;52656;52.610;10.236;2023-03-23T02:58:20;99828.06;;;10.97;86.50
49072;BME280;52656;52.610;10.236;2023-03-23T03:00:48;99824.56;;;10.96;86.70
49072;BME280;52656;52.610;10.236;2023-03-23T03:03:20;99823.53;;;10.83;87.85
49072;BME280;52656;52.610;10.236;2023-03-23T03:06:03;99832.25;;;10.69;88.05
49072;BME280;52656;52.610;10.236;2023-03-23T03:11:12;99828.41;;;10.59;88.30
49072;BME280;52656;52.610;10.236;2023-03-23T03:16:27;99824.06;;;10.74;87.09
49072;BME280;52656;52.610;10.236;2023-03-23T03:19:11;99807.19;;;10.43;89.96
49072;BME280;52656;52.610;10.236;2023-03-23T03:21:42;99815.75;;;10.64;88.23
49072;BME280;52656;52.610;10.236;2023-03-23T03:24:10;99817.31;;;10.68;87.78
49072;BME280;52656;52.610;10.236;2023-03-23T03:26:43;99822.00;;;10.63;87.49
49072;BME280;52656;52.610;10.236;2023-03-23T03:29:21;99828.16;;;10.79;86.86
49072;BME280;52656;52.610;10.236;2023-03-23T03:31:49;99826.94;;;10.85;87.16
49072;BME280;52656;52.610;10.236;2023-03-23T03:34:16;99821.66;;;10.85;87.56
49072;BME280;52656;52.610;10.236;2023-03-23T03:36:44;99818.94;;;10.86;87.24
49072;BME280;52656;52.610;10.236;2023-03-23T03:39:12;99817.91;;;10.73;87.83
49072;BME280;52656;52.610;10.236;2023-03-23T03:41:38;99817.41;;;10.82;86.63
49072;BME280;52656;52.610;10.236;2023-03-23T03:44:07;99820.63;;;10.87;87.97
49072;BME280;52656;52.610;10.236;2023-03-23T03:46:33;99812.50;;;10.75;87.32
49072;BME280;52656;52.610;10.236;2023-03-23T03:49:01;99816.78;;;10.61;88.23
49072;BME280;52656;52.610;10.236;2023-03-23T03:51:27;99813.56;;;10.72;86.74
49072;BME280;52656;52.610;10.236;2023-03-23T03:53:53;99813.09;;;10.48;89.00
49072;BME280;52656;52.610;10.236;2023-03-23T03:56:19;99825.16;;;10.54;90.42
49072;BME280;52656;52.610;10.236;2023-03-23T03:58:45;99823.88;;;10.61;88.36
49072;BME280;52656;52.610;10.236;2023-03-23T04:01:11;99805.59;;;10.56;88.37
49072;BME280;52656;52.610;10.236;2023-03-23T04:03:36;99808.22;;;10.56;88.72
49072;BME280;52656;52.610;10.236;2023-03-23T04:06:02;99808.75;;;10.63;86.73
49072;BME280;52656;52.610;10.236;2023-03-23T04:08:28;99805.47;;;10.42;89.70
49072;BME280;52656;52.610;10.236;2023-03-23T04:10:54;99802.84;;;10.42;89.58
49072;BME280;52656;52.610;10.236;2023-03-23T04:13:20;99794.78;;;10.43;90.55
49072;BME280;52656;52.610;10.236;2023-03-23T04:15:46;99798.22;;;10.46;89.26
49072;BME280;52656;52.610;10.236;2023-03-23T04:18:12;99795.47;;;10.31;90.79
49072;BME280;52656;52.610;10.236;2023-03-23T04:20:46;99782.66;;;10.24;90.20
49072;BME280;52656;52.610;10.236;2023-03-23T04:23:14;99781.72;;;10.25;89.93
49072;BME280;52656;52.610;10.236;2023-03-23T04:25:39;99773.50;;;10.29;89.98
49072;BME280;52656;52.610;10.236;2023-03-23T04:28:07;99780.94;;;10.23;90.38
49072;BME280;52656;52.610;10.236;2023-03-23T04:30:35;99784.94;;;10.14;91.80
49072;BME280;52656;52.610;10.236;2023-03-23T04:33:00;99779.41;;;10.18;91.30
49072;BME280;52656;52.610;10.236;2023-03-23T04:35:27;99786.91;;;10.26;90.38
49072;BME280;52656;52.610;10.236;2023-03-23T04:37:54;99786.72;;;10.13;91.56
49072;BME280;52656;52.610;10.236;2023-03-23T04:40:20;99788.34;;;10.16;92.80
49072;BME280;52656;52.610;10.236;2023-03-23T04:42:46;99787.41;;;10.17;92.03
49072;BME280;52656;52.610;10.236;2023-03-23T04:45:17;99786.91;;;10.26;91.14
49072;BME280;52656;52.610;10.236;2023-03-23T04:47:50;99786.03;;;10.10;92.33
49072;BME280;52656;52.610;10.236;2023-03-23T04:50:23;99783.66;;;10.21;91.79
49072;BME280;52656;52.610;10.236;2023-03-23T04:52:50;99774.00;;;10.20;90.49
49072;BME280;52656;52.610;10.236;2023-03-23T04:55:17;99766.41;;;10.14;91.32
49072;BME280;52656;52.610;10.236;2023-03-23T04:57:43;99737.91;;;10.19;91.32
49072;BME280;52656;52.610;10.236;2023-03-23T05:00:10;99754.88;;;10.15;90.94
49072;BME280;52656;52.610;10.236;2023-03-23T05:02:42;99753.59;;;10.06;91.15
49072;BME280;52656;52.610;10.236;2023-03-23T05:05:10;99760.44;;;10.26;91.03
49072;BME280;52656;52.610;10.236;2023-03-23T05:07:37;99767.22;;;10.32;89.77
49072;BME280;52656;52.610;10.236;2023-03-23T05:10:03;99762.56;;;10.19;90.55
49072;BME280;52656;52.610;10.236;2023-03-23T05:12:28;99766.28;;;10.33;89.17
49072;BME280;52656;52.610;10.236;2023-03-23T05:14:53;99759.78;;;10.23;89.99
49072;BME280;52656;52.610;10.236;2023-03-23T05:17:19;99761.47;;;10.24;90.19
49072;BME280;52656;52.610;10.236;2023-03-23T05:19:44;99760.19;;;10.15;90.80
49072;BME280;52656;52.610;10.236;2023-03-23T05:22:13;99762.22;;;10.26;89.71
49072;BME280;52656;52.610;10.236;2023-03-23T05:24:39;99758.19;;;10.36;89.20
49072;BME280;52656;52.610;10.236;2023-03-23T05:27:05;99766.41;;;10.14;90.15
49072;BME280;52656;52.610;10.236;2023-03-23T05:29:30;99764.63;;;10.30;88.89
49072;BME280;52656;52.610;10.236;2023-03-23T05:31:56;99761.38;;;10.09;90.53
49072;BME280;52656;52.610;10.236;2023-03-23T05:34:25;99761.38;;;10.25;88.79
49072;BME280;52656;52.610;10.236;2023-03-23T05:36:51;99776.84;;;10.33;87.83
49072;BME280;52656;52.610;10.236;2023-03-23T05:39:18;99776.84;;;10.33;87.77
49072;BME280;52656;52.610;10.236;2023-03-23T05:41:44;99778.31;;;10.23;88.20
49072;BME280;52656;52.610;10.236;2023-03-23T05:44:09;99763.53;;;10.34;87.36
49072;BME280;52656;52.610;10.236;2023-03-23T05:46:34;99770.78;;;10.31;86.83
49072;BME280;52656;52.610;10.236;2023-03-23T05:49:00;99776.00;;;10.32;87.33
49072;BME280;52656;52.610;10.236;2023-03-23T05:51:26;99774.22;;;10.49;85.42
49072;BME280;52656;52.610;10.236;2023-03-23T05:53:51;99779.66;;;10.14;87.75
49072;BME280;52656;52.610;10.236;2023-03-23T05:56:17;99780.09;;;10.22;86.93
49072;BME280;52656;52.610;10.236;2023-03-23T05:58:43;99762.53;;;10.37;86.30
49072;BME280;52656;52.610;10.236;2023-03-23T06:01:09;99771.25;;;10.55;85.55
49072;BME280;52656;52.610;10.236;2023-03-23T06:03:34;99772.00;;;10.57;84.57
49072;BME280;52656;52.610;10.236;2023-03-23T06:06:03;99776.34;;;10.42;84.44
49072;BME280;52656;52.610;10.236;2023-03-23T06:08:29;99774.84;;;10.69;83.89
49072;BME280;52656;52.610;10.236;2023-03-23T06:10:54;99770.06;;;10.60;83.97
49072;BME280;52656;52.610;10.236;2023-03-23T06:13:20;99761.75;;;10.66;83.08
49072;BME280;52656;52.610;10.236;2023-03-23T06:15:46;99760.59;;;10.72;82.59
49072;BME280;52656;52.610;10.236;2023-03-23T06:18:12;99753.81;;;10.66;82.40
49072;BME280;52656;52.610;10.236;2023-03-23T06:20:38;99764.94;;;10.73;82.75
49072;BME280;52656;52.610;10.236;2023-03-23T06:23:04;99750.16;;;10.69;83.05
49072;BME280;52656;52.610;10.236;2023-03-23T06:25:29;99745.59;;;10.71;81.82
49072;BME280;52656;52.610;10.236;2023-03-23T06:27:54;99751.59;;;10.75;82.03
49072;BME280;52656;52.610;10.236;2023-03-23T06:30:20;99756.41;;;10.68;81.51
49072;BME280;52656;52.610;10.236;2023-03-23T06:32:46;99759.00;;;11.00;80.14
49072;BME280;52656;52.610;10.236;2023-03-23T06:35:13;99763.16;;;11.19;79.40
49072;BME280;52656;52.610;10.236;2023-03-23T06:37:38;99752.41;;;11.07;79.84
49072;BME280;52656;52.610;10.236;2023-03-23T06:40:04;99765.94;;;10.86;79.96
49072;BME280;52656;52.610;10.236;2023-03-23T06:42:33;99768.13;;;11.10;79.15
49072;BME280;52656;52.610;10.236;2023-03-23T06:44:59;99764.66;;;10.93;79.49
49072;BME280;52656;52.610;10.236;2023-03-23T06:47:26;99759.09;;;10.98;79.43
49072;BME280;52656;52.610;10.236;2023-03-23T06:49:52;99761.53;;;11.33;77.77
49072;BME280;52656;52.610;10.236;2023-03-23T06:52:17;99759.84;;;11.32;76.51
49072;BME280;52656;52.610;10.236;2023-03-23T06:54:43;99767.84;;;11.46;76.55
49072;BME280;52656;52.610;10.236;2023-03-23T06:57:08;99773.88;;;11.48;76.92
49072;BME280;52656;52.610;10.236;2023-03-23T06:59:34;99778.16;;;11.51;76.55
49072;BME280;52656;52.610;10.236;2023-03-23T07:01:59;99778.41;;;11.76;75.88
49072;BME280;52656;52.610;10.236;2023-03-23T07:04:24;99774.94;;;11.90;74.73
49072;BME280;52656;52.610;10.236;2023-03-23T07:06:50;99781.53;;;11.83;74.38
49072;BME280;52656;52.610;10.236;2023-03-23T07:09:15;99779.50;;;11.58;75.19
49072;BME280;52656;52.610;10.236;2023-03-23T07:11:41;99782.84;;;11.76;74.16
49072;BME280;52656;52.610;10.236;2023-03-23T07:14:07;99772.59;;;11.55;75.03
49072;BME280;52656;52.610;10.236;2023-03-23T07:16:32;99781.56;;;11.53;75.63
49072;BME280;52656;52.610;10.236;2023-03-23T07:18:58;99785.56;;;11.90;74.29
49072;BME280;52656;52.610;10.236;2023-03-23T07:21:24;99770.00;;;11.98;74.09
49072;BME280;52656;52.610;10.236;2023-03-23T07:23:49;99775.56;;;11.93;73.68
49072;BME280;52656;52.610;10.236;2023-03-23T07:26:15;99784.44;;;11.64;74.65
49072;BME280;52656;52.610;10.236;2023-03-23T07:28:40;99777.88;;;12.00;72.98
49072;BME280;52656;52.610;10.236;2023-03-23T07:31:06;99779.88;;;12.67;70.79
49072;BME280;52656;52.610;10.236;2023-03-23T07:33:34;99781.72;;;13.34;68.16
49072;BME280;52656;52.610;10.236;2023-03-23T07:35:59;99775.44;;;13.35;66.97
49072;BME280;52656;52.610;10.236;2023-03-23T07:38:26;99779.94;;;12.66;69.63
49072;BME280;52656;52.610;10.236;2023-03-23T07:40:53;99784.66;;;12.75;69.85
49072;BME280;52656;52.610;10.236;2023-03-23T07:43:18;99781.75;;;12.65;69.75
49072;BME280;52656;52.610;10.236;2023-03-23T07:45:44;99776.31;;;12.81;69.36
49072;BME280;52656;52.610;10.236;2023-03-23T07:48:10;99782.34;;;13.25;67.12
49072;BME280;52656;52.610;10.236;2023-03-23T07:50:35;99772.91;;;13.06;67.25
49072;BME280;52656;52.610;10.236;2023-03-23T07:53:02;99778.38;;;13.57;66.15
49072;BME280;52656;52.610;10.236;2023-03-23T07:55:27;99776.97;;;14.04;64.16
49072;BME280;52656;52.610;10.236;2023-03-23T07:57:54;99774.59;;;14.87;60.13
49072;BME280;52656;52.610;10.236;2023-03-23T08:00:20;99769.19;;;15.48;58.06
49072;BME280;52656;52.610;10.236;2023-03-23T08:02:47;99770.56;;;16.00;56.49
49072;BME280;52656;52.610;10.236;2023-03-23T08:05:14;99783.25;;;15.74;54.97
49072;BME280;52656;52.610;10.236;2023-03-23T08:07:40;99771.53;;;16.44;55.20
49072;BME280;52656;52.610;10.236;2023-03-23T08:10:06;99755.25;;;16.02;54.30
49072;BME280;52656;52.610;10.236;2023-03-23T08:12:35;99775.88;;;15.89;56.34
49072;BME280;52656;52.610;10.236;2023-03-23T08:15:00;99770.16;;;17.06;53.22
49072;BME280;52656;52.610;10.236;2023-03-23T08:17:26;99774.22;;;16.44;54.33
49072;BME280;52656;52.610;10.236;2023-03-23T08:19:51;99781.16;;;16.35;54.21
49072;BME280;52656;52.610;10.236;2023-03-23T08:22:17;99770.78;;;17.30;52.51
49072;BME280;52656;52.610;10.236;2023-03-23T08:24:43;99776.47;;;17.37;50.85
49072;BME280;52656;52.610;10.236;2023-03-23T08:27:09;99775.03;;;16.89;51.30
49072;BME280;52656;52.610;10.236;2023-03-23T08:29:34;99780.06;;;16.27;53.96
49072;BME280;52656;52.610;10.236;2023-03-23T08:32:00;99763.88;;;16.62;53.24
49072;BME280;52656;52.610;10.236;2023-03-23T08:34:27;99776.34;;;17.06;52.48
49072;BME280;52656;52.610;10.236;2023-03-23T08:36:54;99782.53;;;17.07;52.46
49072;BME280;52656;52.610;10.236;2023-03-23T08:39:20;99774.13;;;17.22;51.46
49072;BME280;52656;52.610;10.236;2023-03-23T08:41:48;99781.97;;;16.92;52.41
49072;BME280;52656;52.610;10.236;2023-03-23T08:44:13;99778.22;;;17.26;52.48
49072;BME280;52656;52.610;10.236;2023-03-23T08:46:39;99787.56;;;16.89;52.27
49072;BME280;52656;52.610;10.236;2023-03-23T08:49:04;99789.91;;;16.26;52.94
49072;BME280;52656;52.610;10.236;2023-03-23T08:51:31;99796.56;;;16.43;53.31
49072;BME280;52656;52.610;10.236;2023-03-23T08:53:56;99794.47;;;16.02;52.89
49072;BME280;52656;52.610;10.236;2023-03-23T08:56:21;99786.38;;;16.37;53.43
49072;BME280;52656;52.610;10.236;2023-03-23T08:58:47;99793.66;;;16.46;53.52
49072;BME280;52656;52.610;10.236;2023-03-23T09:01:12;99803.88;;;16.18;53.12
49072;BME280;52656;52.610;10.236;2023-03-23T09:03:38;99797.72;;;15.83;53.89
49072;BME280;52656;52.610;10.236;2023-03-23T09:06:05;99792.38;;;15.83;53.87
49072;BME280;52656;52.610;10.236;2023-03-23T09:08:31;99799.69;;;15.92;54.26
49072;BME280;52656;52.610;10.236;2023-03-23T09:11:02;99799.94;;;15.65;55.68
49072;BME280;52656;52.610;10.236;2023-03-23T09:13:28;99799.13;;;15.40;56.25
49072;BME280;52656;52.610;10.236;2023-03-23T09:15:53;99804.66;;;14.89;56.41
49072;BME280;52656;52.610;10.236;2023-03-23T09:18:19;99799.38;;;14.64;58.10
49072;BME280;52656;52.610;10.236;2023-03-23T09:20:45;99806.34;;;14.54;58.06
49072;BME280;52656;52.610;10.236;2023-03-23T09:23:10;99822.03;;;14.33;58.30
49072;BME280;52656;52.610;10.236;2023-03-23T09:25:38;99804.88;;;14.37;59.13
49072;BME280;52656;52.610;10.236;2023-03-23T09:28:03;99821.69;;;14.24;58.72
49072;BME280;52656;52.610;10.236;2023-03-23T09:30:31;99823.31;;;14.40;58.58
49072;BME280;52656;52.610;10.236;2023-03-23T09:32:58;99821.91;;;14.47;59.47
49072;BME280;52656;52.610;10.236;2023-03-23T09:35:26;99818.81;;;14.40;58.66
49072;BME280;52656;52.610;10.236;2023-03-23T09:37:52;99817.31;;;14.98;57.28
49072;BME280;52656;52.610;10.236;2023-03-23T09:40:18;99825.53;;;14.46;56.99
49072;BME280;52656;52.610;10.236;2023-03-23T09:43:20;99829.47;;;15.03;55.93
49072;BME280;52656;52.610;10.236;2023-03-23T09:45:55;99826.47;;;15.07;57.22
49072;BME280;52656;52.610;10.236;2023-03-23T09:54:10;99834.13;;;14.88;57.65
49072;BME280;52656;52.610;10.236;2023-03-23T09:56:38;99845.88;;;14.72;57.98
49072;BME280;52656;52.610;10.236;2023-03-23T10:01:45;99842.72;;;15.04;56.56
49072;BME280;52656;52.610;10.236;2023-03-23T10:06:47;99851.13;;;15.11;56.35
49072;BME280;52656;52.610;10.236;2023-03-23T10:09:14;99838.56;;;15.48;55.80
49072;BME280;52656;52.610;10.236;2023-03-23T10:17:15;99849.88;;;15.28;55.12
49072;BME280;52656;52.610;10.236;2023-03-23T10:19:54;99868.31;;;14.94;56.04
49072;BME280;52656;52.610;10.236;2023-03-23T10:22:49;99855.91;;;14.82;56.48
49072;BME280;52656;52.610;10.236;2023-03-23T10:25:22;99865.81;;;14.67;56.74
49072;BME280;52656;52.610;10.236;2023-03-23T10:28:01;99875.38;;;14.57;58.26
49072;BME280;52656;52.610;10.236;2023-03-23T10:30:38;99873.91;;;14.53;60.50
49072;BME280;52656;52.610;10.236;2023-03-23T10:33:12;99879.00;;;14.30;61.42
49072;BME280;52656;52.610;10.236;2023-03-23T10:38:38;99878.16;;;14.30;60.54
49072;BME280;52656;52.610;10.236;2023-03-23T10:41:17;99887.09;;;14.16;61.51
49072;BME280;52656;52.610;10.236;2023-03-23T10:43:44;99879.25;;;13.75;64.39
49072;BME280;52656;52.610;10.236;2023-03-23T10:46:29;99886.28;;;13.76;67.20
49072;BME280;52656;52.610;10.236;2023-03-23T10:48:56;99891.91;;;13.71;66.86
49072;BME280;52656;52.610;10.236;2023-03-23T10:51:24;99890.22;;;14.22;67.17
49072;BME280;52656;52.610;10.236;2023-03-23T10:53:56;99901.09;;;14.45;65.52
49072;BME280;52656;52.610;10.236;2023-03-23T10:56:23;99900.13;;;14.71;64.69
49072;BME280;52656;52.610;10.236;2023-03-23T10:58:49;99895.88;;;14.82;64.80
49072;BME280;52656;52.610;10.236;2023-03-23T11:01:18;99888.94;;;15.29;63.46
49072;BME280;52656;52.610;10.236;2023-03-23T11:03:46;99886.22;;;15.41;62.68
49072;BME280;52656;52.610;10.236;2023-03-23T11:06:22;99891.19;;;15.83;61.44
49072;BME280;52656;52.610;10.236;2023-03-23T11:08:52;99883.31;;;16.28;59.87
49072;BME280;52656;52.610;10.236;2023-03-23T11:11:24;99879.16;;;16.12;59.65
49072;BME280;52656;52.610;10.236;2023-03-23T11:13:57;99872.06;;;16.80;57.61
49072;BME280;52656;52.610;10.236;2023-03-23T11:16:25;99882.53;;;16.94;56.85
49072;BME280;52656;52.610;10.236;2023-03-23T11:18:51;99877.88;;;17.19;54.58
49072;BME280;52656;52.610;10.236;2023-03-23T11:21:17;99875.84;;;16.89;53.97
49072;BME280;52656;52.610;10.236;2023-03-23T11:23:49;99872.41;;;17.20;53.83
49072;BME280;52656;52.610;10.236;2023-03-23T11:26:19;99866.19;;;17.20;53.14
49072;BME280;52656;52.610;10.236;2023-03-23T11:29:09;99877.19;;;16.94;52.05
49072;BME280;52656;52.610;10.236;2023-03-23T11:31:41;99887.41;;;17.00;51.43
49072;BME280;52656;52.610;10.236;2023-03-23T11:36:40;99900.91;;;16.99;50.56
49072;BME280;52656;52.610;10.236;2023-03-23T11:39:33;99892.81;;;17.33;51.15
49072;BME280;52656;52.610;10.236;2023-03-23T11:42:01;99886.44;;;17.67;50.23
49072;BME280;52656;52.610;10.236;2023-03-23T11:44:39;99907.28;;;17.85;50.33
49072;BME280;52656;52.610;10.236;2023-03-23T11:53:00;99889.09;;;17.56;49.60
49072;BME280;52656;52.610;10.236;2023-03-23T11:58:01;99905.63;;;17.18;51.41
49072;BME280;52656;52.610;10.236;2023-03-23T12:00:30;99913.91;;;16.92;51.10
49072;BME280;52656;52.610;10.236;2023-03-23T12:06:19;99906.28;;;15.95;55.49
49072;BME280;52656;52.610;10.236;2023-03-23T12:08:59;99927.97;;;14.93;61.12
49072;BME280;52656;52.610;10.236;2023-03-23T12:12:01;99931.81;;;14.89;61.83
49072;BME280;52656;52.610;10.236;2023-03-23T12:17:46;99917.91;;;15.22;61.09
49072;BME280;52656;52.610;10.236;2023-03-23T12:34:23;99941.47;;;14.39;65.56
49072;BME280;52656;52.610;10.236;2023-03-23T12:42:13;99951.50;;;14.35;66.96
49072;BME280;52656;52.610;10.236;2023-03-23T12:44:59;99957.69;;;14.36;67.11
49072;BME280;52656;52.610;10.236;2023-03-23T12:50:09;99950.13;;;14.03;69.46
49072;BME280;52656;52.610;10.236;2023-03-23T12:52:45;99952.13;;;13.86;70.43
49072;BME280;52656;52.610;10.236;2023-03-23T12:55:27;99950.91;;;13.36;72.51
49072;BME280;52656;52.610;10.236;2023-03-23T12:58:07;99961.41;;;13.66;71.69
49072;BME280;52656;52.610;10.236;2023-03-23T13:06:18;99978.88;;;13.70;72.02
49072;BME280;52656;52.610;10.236;2023-03-23T13:08:56;99972.81;;;13.68;72.84
49072;BME280;52656;52.610;10.236;2023-03-23T13:11:31;99955.75;;;14.38;68.76
49072;BME280;52656;52.610;10.236;2023-03-23T13:19:37;99967.63;;;14.59;67.91
49072;BME280;52656;52.610;10.236;2023-03-23T13:22:21;99972.16;;;14.32;68.71
49072;BME280;52656;52.610;10.236;2023-03-23T13:24:55;99976.13;;;13.72;69.11
49072;BME280;52656;52.610;10.236;2023-03-23T13:27:25;99977.00;;;13.72;70.15
49072;BME280;52656;52.610;10.236;2023-03-23T13:29:53;99976.44;;;13.67;69.13
49072;BME280;52656;52.610;10.236;2023-03-23T13:32:20;99983.28;;;13.71;69.39
49072;BME280;52656;52.610;10.236;2023-03-23T13:34:48;99985.06;;;13.71;70.01
49072;BME280;52656;52.610;10.236;2023-03-23T13:39:56;99976.94;;;13.45;69.72
49072;BME280;52656;52.610;10.236;2023-03-23T13:42:26;99976.56;;;13.37;68.02
49072;BME280;52656;52.610;10.236;2023-03-23T13:54:45;99981.47;;;13.43;68.47
49072;BME280;52656;52.610;10.236;2023-03-23T13:59:48;99979.81;;;13.00;69.16
49072;BME280;52656;52.610;10.236;2023-03-23T14:02:37;99973.25;;;13.19;67.90
49072;BME280;52656;52.610;10.236;2023-03-23T14:10:23;99961.50;;;12.81;67.65
49072;BME280;52656;52.610;10.236;2023-03-23T14:12:50;99975.06;;;13.19;68.03
49072;BME280;52656;52.610;10.236;2023-03-23T14:15:17;99967.19;;;13.17;67.65
49072;BME280;52656;52.610;10.236;2023-03-23T14:17:43;99966.16;;;12.91;69.21
49072;BME280;52656;52.610;10.236;2023-03-23T14:20:22;99968.72;;;13.48;68.08
49072;BME280;52656;52.610;10.236;2023-03-23T14:22:53;99958.94;;;13.22;68.21
49072;BME280;52656;52.610;10.236;2023-03-23T14:25:19;99954.53;;;13.35;68.08
49072;BME280;52656;52.610;10.236;2023-03-23T14:27:46;99948.69;;;13.43;68.13
49072;BME280;52656;52.610;10.236;2023-03-23T14:30:18;99948.38;;;13.76;66.67
49072;BME280;52656;52.610;10.236;2023-03-23T14:32:44;99945.19;;;13.42;67.20
49072;BME280;52656;52.610;10.236;2023-03-23T14:37:37;99948.38;;;13.76;65.76
49072;BME280;52656;52.610;10.236;2023-03-23T14:40:03;99952.69;;;13.50;66.34
49072;BME280;52656;52.610;10.236;2023-03-23T14:42:33;99939.47;;;13.90;64.73
49072;BME280;52656;52.610;10.236;2023-03-23T14:45:00;99947.78;;;13.98;63.07
49072;BME280;52656;52.610;10.236;2023-03-23T14:47:38;99945.81;;;14.14;62.00
49072;BME280;52656;52.610;10.236;2023-03-23T14:50:18;99952.81;;;14.03;62.84
49072;BME280;52656;52.610;10.236;2023-03-23T14:52:47;99949.41;;;13.73;62.12
49072;BME280;52656;52.610;10.236;2023-03-23T14:55:18;99955.84;;;13.84;62.94
49072;BME280;52656;52.610;10.236;2023-03-23T14:57:46;99951.22;;;13.73;63.09
49072;BME280;52656;52.610;10.236;2023-03-23T15:00:33;99957.78;;;13.53;63.30
49072;BME280;52656;52.610;10.236;2023-03-23T15:03:01;99970.03;;;13.70;63.22